sensor_id;sensor_type;location;lat;lon;timestamp;pressure;altitude;pressure_sealevel;temperature;humidity
60820;BME280;46641;48.904;9.126;2022-07-23T00:04:47;98480.94;;;30.07;37.09
60820;BME280;46641;48.904;9.126;2022-07-23T00:09:38;98467.69;;;30.05;37.28
60820;BME280;46641;48.904;9.126;2022-07-23T00:14:28;98463.63;;;30.02;37.19
60820;BME280;46641;48.904;9.126;2022-07-23T00:19:19;98468.78;;;29.99;37.05
60820;BME280;46641;48.904;9.126;2022-07-23T00:24:09;98452.88;;;29.97;36.91
60820;BME280;46641;48.904;9.126;2022-07-23T00:28:59;98454.22;;;29.95;37.03
60820;BME280;46641;48.904;9.126;2022-07-23T00:33:50;98447.22;;;29.94;37.08
60820;BME280;46641;48.904;9.126;2022-07-23T00:38:40;98451.53;;;29.90;36.87
60820;BME280;46641;48.904;9.126;2022-07-23T00:43:30;98445.63;;;29.88;37.61
60820;BME280;46641;48.904;9.126;2022-07-23T00:48:21;98443.72;;;29.83;37.27
60820;BME280;46641;48.904;9.126;2022-07-23T00:53:12;98442.13;;;29.82;37.17
60820;BME280;46641;48.904;9.126;2022-07-23T00:58:02;98435.38;;;29.79;37.33
60820;BME280;46641;48.904;9.126;2022-07-23T01:02:52;98445.66;;;29.77;37.25
60820;BME280;46641;48.904;9.126;2022-07-23T01:07:43;98447.81;;;29.75;37.36
60820;BME280;46641;48.904;9.126;2022-07-23T01:12:33;98441.63;;;29.75;37.28
60820;BME280;46641;48.904;9.126;2022-07-23T01:17:24;98453.75;;;29.72;37.63
60820;BME280;46641;48.904;9.126;2022-07-23T01:22:15;98448.66;;;29.71;37.39
60820;BME280;46641;48.904;9.126;2022-07-23T01:27:07;98435.69;;;29.68;37.57
60820;BME280;46641;48.904;9.126;2022-07-23T01:31:58;98437.31;;;29.64;37.38
60820;BME280;46641;48.904;9.126;2022-07-23T01:36:48;98422.22;;;29.63;37.67
60820;BME280;46641;48.904;9.126;2022-07-23T01:41:38;98412.78;;;29.60;37.56
60820;BME280;46641;48.904;9.126;2022-07-23T01:46:29;98424.91;;;29.57;37.50
60820;BME280;46641;48.904;9.126;2022-07-23T01:51:19;98428.41;;;29.53;37.50
60820;BME280;46641;48.904;9.126;2022-07-23T01:56:09;98427.06;;;29.50;37.82
60820;BME280;46641;48.904;9.126;2022-07-23T02:01:00;98441.91;;;29.48;37.81
60820;BME280;46641;48.904;9.126;2022-07-23T02:05:50;98443.53;;;29.44;37.76
60820;BME280;46641;48.904;9.126;2022-07-23T02:10:41;98435.97;;;29.41;37.93
60820;BME280;46641;48.904;9.126;2022-07-23T02:15:31;98422.78;;;29.39;37.80
60820;BME280;46641;48.904;9.126;2022-07-23T02:20:22;98434.09;;;29.36;37.54
60820;BME280;46641;48.904;9.126;2022-07-23T02:25:12;98475.38;;;29.31;37.71
60820;BME280;46641;48.904;9.126;2022-07-23T02:30:04;98474.84;;;29.29;38.22
60820;BME280;46641;48.904;9.126;2022-07-23T02:34:54;98490.47;;;29.27;37.94
60820;BME280;46641;48.904;9.126;2022-07-23T02:39:44;98502.59;;;29.25;38.19
60820;BME280;46641;48.904;9.126;2022-07-23T02:44:35;98513.94;;;29.22;37.65
60820;BME280;46641;48.904;9.126;2022-07-23T02:49:26;98517.41;;;29.17;38.19
60820;BME280;46641;48.904;9.126;2022-07-23T02:54:17;98520.66;;;29.14;38.22
60820;BME280;46641;48.904;9.126;2022-07-23T02:59:07;98536.31;;;29.12;37.88
60820;BME280;46641;48.904;9.126;2022-07-23T03:03:58;98535.19;;;29.08;38.10
60820;BME280;46641;48.904;9.126;2022-07-23T03:08:48;98543.56;;;29.06;38.28
60820;BME280;46641;48.904;9.126;2022-07-23T03:13:40;98534.41;;;29.02;38.37
60820;BME280;46641;48.904;9.126;2022-07-23T03:18:30;98547.03;;;29.02;38.34
60820;BME280;46641;48.904;9.126;2022-07-23T03:23:20;98530.56;;;28.98;37.89
60820;BME280;46641;48.904;9.126;2022-07-23T03:28:11;98518.72;;;28.94;38.35
60820;BME280;46641;48.904;9.126;2022-07-23T03:33:01;98532.47;;;28.93;38.21
60820;BME280;46641;48.904;9.126;2022-07-23T03:37:51;98533.81;;;28.90;37.99
60820;BME280;46641;48.904;9.126;2022-07-23T03:42:42;98548.59;;;28.87;38.20
60820;BME280;46641;48.904;9.126;2022-07-23T03:47:33;98546.44;;;28.84;38.44
60820;BME280;46641;48.904;9.126;2022-07-23T03:52:23;98548.59;;;28.82;38.54
60820;BME280;46641;48.904;9.126;2022-07-23T03:57:14;98554.50;;;28.79;38.41
60820;BME280;46641;48.904;9.126;2022-07-23T04:02:04;98556.66;;;28.77;38.78
60820;BME280;46641;48.904;9.126;2022-07-23T04:06:54;98554.22;;;28.76;38.81
60820;BME280;46641;48.904;9.126;2022-07-23T04:11:45;98556.63;;;28.72;38.79
60820;BME280;46641;48.904;9.126;2022-07-23T04:16:35;98557.16;;;28.69;38.81
60820;BME280;46641;48.904;9.126;2022-07-23T04:21:25;98559.59;;;28.65;38.35
60820;BME280;46641;48.904;9.126;2022-07-23T04:26:16;98560.91;;;28.63;38.82
60820;BME280;46641;48.904;9.126;2022-07-23T04:31:06;98556.59;;;28.62;38.48
60820;BME280;46641;48.904;9.126;2022-07-23T04:35:56;98551.50;;;28.60;38.65
60820;BME280;46641;48.904;9.126;2022-07-23T04:40:47;98560.34;;;28.56;38.86
60820;BME280;46641;48.904;9.126;2022-07-23T04:45:37;98564.38;;;28.53;38.72
60820;BME280;46641;48.904;9.126;2022-07-23T04:50:27;98560.88;;;28.53;38.73
60820;BME280;46641;48.904;9.126;2022-07-23T04:55:18;98576.50;;;28.51;38.83
60820;BME280;46641;48.904;9.126;2022-07-23T05:00:09;98588.34;;;28.50;38.81
60820;BME280;46641;48.904;9.126;2022-07-23T05:04:59;98590.50;;;28.48;38.98
60820;BME280;46641;48.904;9.126;2022-07-23T05:09:50;98588.84;;;28.47;39.21
60820;BME280;46641;48.904;9.126;2022-07-23T05:14:40;98584.81;;;28.44;39.05
60820;BME280;46641;48.904;9.126;2022-07-23T05:19:30;98593.97;;;28.43;38.83
60820;BME280;46641;48.904;9.126;2022-07-23T05:24:21;98595.47;;;28.29;40.27
60820;BME280;46641;48.904;9.126;2022-07-23T05:29:11;98611.91;;;28.32;41.25
60820;BME280;46641;48.904;9.126;2022-07-23T05:34:01;98602.50;;;28.35;41.95
60820;BME280;46641;48.904;9.126;2022-07-23T05:38:52;98619.13;;;28.22;44.29
60820;BME280;46641;48.904;9.126;2022-07-23T05:43:42;98609.41;;;28.20;44.04
60820;BME280;46641;48.904;9.126;2022-07-23T05:48:32;98637.69;;;28.23;43.87
60820;BME280;46641;48.904;9.126;2022-07-23T05:53:23;98658.72;;;28.26;43.33
60820;BME280;46641;48.904;9.126;2022-07-23T05:58:13;98654.41;;;28.25;43.46
60820;BME280;46641;48.904;9.126;2022-07-23T06:03:03;98656.53;;;28.23;43.30
60820;BME280;46641;48.904;9.126;2022-07-23T06:07:53;98649.53;;;28.22;43.28
60820;BME280;46641;48.904;9.126;2022-07-23T06:12:44;98647.09;;;28.20;43.20
60820;BME280;46641;48.904;9.126;2022-07-23T06:17:35;98635.78;;;28.18;43.06
60820;BME280;46641;48.904;9.126;2022-07-23T06:22:25;98620.19;;;28.20;42.83
60820;BME280;46641;48.904;9.126;2022-07-23T06:27:16;98635.91;;;27.37;44.86
60820;BME280;46641;48.904;9.126;2022-07-23T06:32:07;98638.16;;;27.78;44.33
60820;BME280;46641;48.904;9.126;2022-07-23T06:36:57;98655.53;;;27.97;44.27
60820;BME280;46641;48.904;9.126;2022-07-23T06:41:48;98662.34;;;28.05;43.77
60820;BME280;46641;48.904;9.126;2022-07-23T06:46:38;98677.41;;;27.24;45.78
60820;BME280;46641;48.904;9.126;2022-07-23T06:51:28;98694.53;;;27.67;44.69
60820;BME280;46641;48.904;9.126;2022-07-23T06:56:19;98719.22;;;27.86;44.67
60820;BME280;46641;48.904;9.126;2022-07-23T07:01:09;98723.03;;;27.90;44.40
60820;BME280;46641;48.904;9.126;2022-07-23T07:05:59;98723.59;;;27.92;44.71
60820;BME280;46641;48.904;9.126;2022-07-23T07:10:50;98702.47;;;27.79;46.51
60820;BME280;46641;48.904;9.126;2022-07-23T07:15:40;98712.91;;;27.04;49.34
60820;BME280;46641;48.904;9.126;2022-07-23T07:20:31;98666.47;;;27.31;48.75
60820;BME280;46641;48.904;9.126;2022-07-23T07:25:21;98692.16;;;26.78;49.94
60820;BME280;46641;48.904;9.126;2022-07-23T07:30:12;98689.59;;;27.32;47.83
60820;BME280;46641;48.904;9.126;2022-07-23T07:35:04;98695.25;;;27.58;47.50
60820;BME280;46641;48.904;9.126;2022-07-23T07:39:54;98700.22;;;27.71;46.93
60820;BME280;46641;48.904;9.126;2022-07-23T07:44:44;98708.34;;;27.76;46.91
60820;BME280;46641;48.904;9.126;2022-07-23T07:49:35;98708.34;;;27.76;46.96
60820;BME280;46641;48.904;9.126;2022-07-23T07:54:25;98710.22;;;27.76;46.62
60820;BME280;46641;48.904;9.126;2022-07-23T07:59:15;98724.72;;;27.74;46.95
60820;BME280;46641;48.904;9.126;2022-07-23T08:04:06;98730.69;;;27.77;46.82
60820;BME280;46641;48.904;9.126;2022-07-23T08:08:56;98720.16;;;27.75;47.01
60820;BME280;46641;48.904;9.126;2022-07-23T08:13:46;98730.91;;;27.75;46.53
60820;BME280;46641;48.904;9.126;2022-07-23T08:18:37;98718.28;;;27.76;46.62
60820;BME280;46641;48.904;9.126;2022-07-23T08:23:27;98722.84;;;27.75;46.15
60820;BME280;46641;48.904;9.126;2022-07-23T08:28:17;98728.22;;;27.75;46.47
60820;BME280;46641;48.904;9.126;2022-07-23T08:33:10;98724.47;;;27.76;45.94
60820;BME280;46641;48.904;9.126;2022-07-23T08:38:05;98744.34;;;27.75;46.06
60820;BME280;46641;48.904;9.126;2022-07-23T08:42:56;98739.56;;;27.77;45.94
60820;BME280;46641;48.904;9.126;2022-07-23T08:47:52;98739.06;;;27.80;46.11
60820;BME280;46641;48.904;9.126;2022-07-23T08:52:42;98728.03;;;27.82;45.52
60820;BME280;46641;48.904;9.126;2022-07-23T08:57:33;98713.28;;;27.84;45.61
60820;BME280;46641;48.904;9.126;2022-07-23T09:02:24;98723.81;;;27.91;45.15
60820;BME280;46641;48.904;9.126;2022-07-23T09:07:15;98718.75;;;27.94;44.94
60820;BME280;46641;48.904;9.126;2022-07-23T09:12:07;98723.63;;;27.98;45.46
60820;BME280;46641;48.904;9.126;2022-07-23T09:17:08;98731.75;;;28.03;45.62
60820;BME280;46641;48.904;9.126;2022-07-23T09:22:25;98726.72;;;28.11;44.54
60820;BME280;46641;48.904;9.126;2022-07-23T09:27:16;98725.94;;;28.16;44.80
60820;BME280;46641;48.904;9.126;2022-07-23T09:32:13;98721.72;;;28.25;45.46
60820;BME280;46641;48.904;9.126;2022-07-23T09:37:12;98726.59;;;28.33;44.78
60820;BME280;46641;48.904;9.126;2022-07-23T09:42:18;98729.41;;;28.43;45.13
60820;BME280;46641;48.904;9.126;2022-07-23T09:47:08;98728.97;;;28.57;45.33
60820;BME280;46641;48.904;9.126;2022-07-23T09:52:00;98727.91;;;28.63;44.66
60820;BME280;46641;48.904;9.126;2022-07-23T09:56:53;98726.63;;;28.71;44.98
60820;BME280;46641;48.904;9.126;2022-07-23T10:01:44;98721.81;;;28.78;44.88
60820;BME280;46641;48.904;9.126;2022-07-23T10:06:35;98728.63;;;28.91;44.65
60820;BME280;46641;48.904;9.126;2022-07-23T10:11:27;98721.66;;;29.00;45.07
60820;BME280;46641;48.904;9.126;2022-07-23T10:16:18;98717.97;;;29.11;45.25
60820;BME280;46641;48.904;9.126;2022-07-23T10:21:09;98725.56;;;29.24;45.42
60820;BME280;46641;48.904;9.126;2022-07-23T10:26:30;98729.94;;;29.35;45.14
60820;BME280;46641;48.904;9.126;2022-07-23T10:31:46;98718.09;;;29.47;44.35
60820;BME280;46641;48.904;9.126;2022-07-23T10:36:57;98724.06;;;29.59;44.59
60820;BME280;46641;48.904;9.126;2022-07-23T10:41:50;98716.00;;;29.69;45.46
60820;BME280;46641;48.904;9.126;2022-07-23T10:47:01;98719.00;;;29.83;44.87
60820;BME280;46641;48.904;9.126;2022-07-23T10:52:18;98716.03;;;29.95;45.21
60820;BME280;46641;48.904;9.126;2022-07-23T10:57:10;98714.69;;;30.08;45.26
60820;BME280;46641;48.904;9.126;2022-07-23T11:02:21;98711.19;;;30.22;44.38
60820;BME280;46641;48.904;9.126;2022-07-23T11:07:12;98710.13;;;30.34;44.91
60820;BME280;46641;48.904;9.126;2022-07-23T11:17:19;98717.91;;;30.61;44.03
60820;BME280;46641;48.904;9.126;2022-07-23T11:22:34;98708.97;;;30.70;44.18
60820;BME280;46641;48.904;9.126;2022-07-23T11:27:39;98697.91;;;30.82;43.82
60820;BME280;46641;48.904;9.126;2022-07-23T11:32:33;98694.06;;;30.93;44.03
60820;BME280;46641;48.904;9.126;2022-07-23T11:37:43;98694.00;;;31.04;42.71
60820;BME280;46641;48.904;9.126;2022-07-23T11:42:36;98696.44;;;31.10;44.32
60820;BME280;46641;48.904;9.126;2022-07-23T11:47:27;98692.06;;;31.19;43.92
60820;BME280;46641;48.904;9.126;2022-07-23T11:52:17;98699.59;;;31.28;44.21
60820;BME280;46641;48.904;9.126;2022-07-23T11:57:08;98683.34;;;31.33;43.40
60820;BME280;46641;48.904;9.126;2022-07-23T12:02:03;98679.28;;;31.40;43.23
60820;BME280;46641;48.904;9.126;2022-07-23T12:06:54;98688.19;;;31.41;44.25
60820;BME280;46641;48.904;9.126;2022-07-23T12:11:58;98677.63;;;31.45;43.27
60820;BME280;46641;48.904;9.126;2022-07-23T12:17:06;98667.03;;;31.48;43.34
60820;BME280;46641;48.904;9.126;2022-07-23T12:21:57;98662.13;;;31.55;43.68
60820;BME280;46641;48.904;9.126;2022-07-23T12:27:09;98677.78;;;31.63;43.11
60820;BME280;46641;48.904;9.126;2022-07-23T12:32:00;98674.75;;;31.70;43.29
60820;BME280;46641;48.904;9.126;2022-07-23T12:36:50;98665.22;;;31.78;42.94
60820;BME280;46641;48.904;9.126;2022-07-23T12:41:53;98675.44;;;31.86;42.30
60820;BME280;46641;48.904;9.126;2022-07-23T12:46:49;98670.00;;;31.91;41.57
60820;BME280;46641;48.904;9.126;2022-07-23T12:51:40;98678.66;;;31.93;42.43
60820;BME280;46641;48.904;9.126;2022-07-23T12:56:32;98674.28;;;31.97;42.24
60820;BME280;46641;48.904;9.126;2022-07-23T13:01:24;98673.72;;;32.00;42.07
60820;BME280;46641;48.904;9.126;2022-07-23T13:06:15;98670.75;;;32.02;41.96
60820;BME280;46641;48.904;9.126;2022-07-23T13:11:06;98675.31;;;32.06;41.75
60820;BME280;46641;48.904;9.126;2022-07-23T13:15:57;98676.34;;;32.10;41.82
60820;BME280;46641;48.904;9.126;2022-07-23T13:20:48;98676.31;;;32.16;41.53
60820;BME280;46641;48.904;9.126;2022-07-23T13:25:39;98673.25;;;32.22;41.36
60820;BME280;46641;48.904;9.126;2022-07-23T13:30:30;98673.47;;;32.31;41.08
60820;BME280;46641;48.904;9.126;2022-07-23T13:35:20;98674.50;;;32.35;41.26
60820;BME280;46641;48.904;9.126;2022-07-23T13:40:11;98667.41;;;32.39;40.79
60820;BME280;46641;48.904;9.126;2022-07-23T13:45:02;98674.97;;;32.42;40.78
60820;BME280;46641;48.904;9.126;2022-07-23T13:49:52;98663.31;;;32.42;40.61
60820;BME280;46641;48.904;9.126;2022-07-23T13:54:43;98656.00;;;32.42;40.74
60820;BME280;46641;48.904;9.126;2022-07-23T13:59:33;98653.03;;;32.44;40.46
60820;BME280;46641;48.904;9.126;2022-07-23T14:04:23;98651.69;;;32.41;40.36
60820;BME280;46641;48.904;9.126;2022-07-23T14:09:13;98644.63;;;32.40;39.88
60820;BME280;46641;48.904;9.126;2022-07-23T14:14:04;98646.78;;;32.43;39.93
60820;BME280;46641;48.904;9.126;2022-07-23T14:18:55;98645.16;;;32.47;39.94
60820;BME280;46641;48.904;9.126;2022-07-23T14:23:45;98646.44;;;32.50;40.43
60820;BME280;46641;48.904;9.126;2022-07-23T14:28:35;98653.19;;;32.52;40.15
60820;BME280;46641;48.904;9.126;2022-07-23T14:33:26;98652.69;;;32.50;40.39
60820;BME280;46641;48.904;9.126;2022-07-23T14:38:16;98644.34;;;32.47;39.96
60820;BME280;46641;48.904;9.126;2022-07-23T14:43:07;98653.28;;;32.42;40.06
60820;BME280;46641;48.904;9.126;2022-07-23T14:47:57;98644.63;;;32.45;40.40
60820;BME280;46641;48.904;9.126;2022-07-23T14:52:48;98647.06;;;32.47;40.29
60820;BME280;46641;48.904;9.126;2022-07-23T14:57:39;98653.78;;;32.49;40.20
60820;BME280;46641;48.904;9.126;2022-07-23T15:02:29;98635.59;;;32.50;40.26
60820;BME280;46641;48.904;9.126;2022-07-23T15:07:19;98630.50;;;32.48;40.20
60820;BME280;46641;48.904;9.126;2022-07-23T15:12:10;98642.66;;;32.51;40.45
60820;BME280;46641;48.904;9.126;2022-07-23T15:17:00;98636.44;;;32.50;40.13
60820;BME280;46641;48.904;9.126;2022-07-23T15:21:50;98642.38;;;32.52;39.87
60820;BME280;46641;48.904;9.126;2022-07-23T15:26:41;98638.03;;;32.51;39.74
60820;BME280;46641;48.904;9.126;2022-07-23T15:31:32;98648.88;;;32.51;39.94
60820;BME280;46641;48.904;9.126;2022-07-23T15:36:22;98653.19;;;32.52;39.70
60820;BME280;46641;48.904;9.126;2022-07-23T15:41:13;98650.22;;;32.54;39.21
60820;BME280;46641;48.904;9.126;2022-07-23T15:46:04;98646.72;;;32.53;39.86
60820;BME280;46641;48.904;9.126;2022-07-23T15:50:55;98647.22;;;32.55;39.40
60820;BME280;46641;48.904;9.126;2022-07-23T15:55:46;98646.13;;;32.56;40.06
60820;BME280;46641;48.904;9.126;2022-07-23T16:00:36;98641.78;;;32.55;39.53
60820;BME280;46641;48.904;9.126;2022-07-23T16:05:26;98639.31;;;32.59;39.52
60820;BME280;46641;48.904;9.126;2022-07-23T16:10:17;98641.44;;;32.62;39.69
60820;BME280;46641;48.904;9.126;2022-07-23T16:15:08;98650.38;;;32.63;39.58
60820;BME280;46641;48.904;9.126;2022-07-23T16:19:58;98650.69;;;32.61;40.03
60820;BME280;46641;48.904;9.126;2022-07-23T16:24:49;98652.59;;;32.61;39.86
60820;BME280;46641;48.904;9.126;2022-07-23T16:29:40;98651.25;;;32.58;39.56
60820;BME280;46641;48.904;9.126;2022-07-23T16:34:30;98651.56;;;32.56;39.28
60820;BME280;46641;48.904;9.126;2022-07-23T16:39:20;98652.13;;;32.53;39.21
60820;BME280;46641;48.904;9.126;2022-07-23T16:44:11;98657.56;;;32.53;38.05
60820;BME280;46641;48.904;9.126;2022-07-23T16:49:01;98658.97;;;32.46;38.15
60820;BME280;46641;48.904;9.126;2022-07-23T16:53:52;98665.56;;;32.34;35.78
60820;BME280;46641;48.904;9.126;2022-07-23T16:58:42;98670.91;;;31.37;38.67
60820;BME280;46641;48.904;9.126;2022-07-23T17:03:33;98672.22;;;31.89;37.23
60820;BME280;46641;48.904;9.126;2022-07-23T17:08:23;98678.50;;;31.30;37.62
60820;BME280;46641;48.904;9.126;2022-07-23T17:13:14;98681.13;;;31.50;38.00
60820;BME280;46641;48.904;9.126;2022-07-23T17:18:04;98684.38;;;31.92;37.41
60820;BME280;46641;48.904;9.126;2022-07-23T17:22:55;98682.84;;;32.09;37.46
60820;BME280;46641;48.904;9.126;2022-07-23T17:27:47;98678.94;;;32.21;37.19
60820;BME280;46641;48.904;9.126;2022-07-23T17:32:37;98681.63;;;32.26;36.90
60820;BME280;46641;48.904;9.126;2022-07-23T17:37:28;98679.72;;;32.26;37.12
60820;BME280;46641;48.904;9.126;2022-07-23T17:42:18;98670.56;;;32.22;37.54
60820;BME280;46641;48.904;9.126;2022-07-23T17:47:08;98668.94;;;32.21;37.15
60820;BME280;46641;48.904;9.126;2022-07-23T17:52:01;98675.75;;;32.19;37.30
60820;BME280;46641;48.904;9.126;2022-07-23T17:56:51;98674.69;;;32.15;37.55
60820;BME280;46641;48.904;9.126;2022-07-23T18:01:42;98683.41;;;32.11;37.46
60820;BME280;46641;48.904;9.126;2022-07-23T18:06:32;98682.06;;;32.09;37.15
60820;BME280;46641;48.904;9.126;2022-07-23T18:11:22;98678.81;;;32.07;37.29
60820;BME280;46641;48.904;9.126;2022-07-23T18:16:13;98688.31;;;32.04;37.34
60820;BME280;46641;48.904;9.126;2022-07-23T18:21:03;98684.28;;;32.02;37.22
60820;BME280;46641;48.904;9.126;2022-07-23T18:25:54;98699.19;;;31.99;37.53
60820;BME280;46641;48.904;9.126;2022-07-23T18:30:45;98695.44;;;31.95;37.56
60820;BME280;46641;48.904;9.126;2022-07-23T18:35:35;98700.31;;;31.93;37.57
60820;BME280;46641;48.904;9.126;2022-07-23T18:40:26;98709.00;;;31.90;37.75
60820;BME280;46641;48.904;9.126;2022-07-23T18:45:16;98709.53;;;31.87;37.50
60820;BME280;46641;48.904;9.126;2022-07-23T18:50:10;98712.31;;;31.82;37.51
60820;BME280;46641;48.904;9.126;2022-07-23T18:55:01;98715.56;;;31.79;37.28
60820;BME280;46641;48.904;9.126;2022-07-23T18:59:52;98736.16;;;31.75;37.40
60820;BME280;46641;48.904;9.126;2022-07-23T19:04:42;98731.28;;;31.72;37.46
60820;BME280;46641;48.904;9.126;2022-07-23T19:09:33;98731.34;;;31.66;37.65
60820;BME280;46641;48.904;9.126;2022-07-23T19:14:24;98743.28;;;31.65;37.46
60820;BME280;46641;48.904;9.126;2022-07-23T19:19:14;98754.66;;;31.62;38.04
60820;BME280;46641;48.904;9.126;2022-07-23T19:24:05;98752.75;;;31.58;37.80
60820;BME280;46641;48.904;9.126;2022-07-23T19:28:56;98764.94;;;31.55;37.95
60820;BME280;46641;48.904;9.126;2022-07-23T19:33:47;98766.59;;;31.51;37.99
60820;BME280;46641;48.904;9.126;2022-07-23T19:38:37;98772.31;;;31.50;37.54
60820;BME280;46641;48.904;9.126;2022-07-23T19:43:28;98774.22;;;31.44;38.29
60820;BME280;46641;48.904;9.126;2022-07-23T19:48:18;98780.97;;;31.41;38.10
60820;BME280;46641;48.904;9.126;2022-07-23T19:53:09;98789.13;;;31.36;38.15
60820;BME280;46641;48.904;9.126;2022-07-23T19:57:59;98792.63;;;31.32;38.21
60820;BME280;46641;48.904;9.126;2022-07-23T20:02:49;98796.97;;;31.28;38.68
60820;BME280;46641;48.904;9.126;2022-07-23T20:07:40;98797.53;;;31.25;38.36
60820;BME280;46641;48.904;9.126;2022-07-23T20:12:30;98793.22;;;31.18;38.53
60820;BME280;46641;48.904;9.126;2022-07-23T20:17:21;98796.75;;;31.14;38.42
60820;BME280;46641;48.904;9.126;2022-07-23T20:22:11;98796.75;;;31.09;38.51
60820;BME280;46641;48.904;9.126;2022-07-23T20:27:01;98815.44;;;31.05;38.76
60820;BME280;46641;48.904;9.126;2022-07-23T20:31:53;98817.88;;;31.02;38.96
60820;BME280;46641;48.904;9.126;2022-07-23T20:36:44;98811.66;;;30.96;39.08
60820;BME280;46641;48.904;9.126;2022-07-23T20:41:35;98830.31;;;30.92;39.04
60820;BME280;46641;48.904;9.126;2022-07-23T20:46:25;98839.25;;;30.88;39.25
60820;BME280;46641;48.904;9.126;2022-07-23T20:51:16;98833.03;;;30.82;39.07
60820;BME280;46641;48.904;9.126;2022-07-23T20:56:07;98831.13;;;30.78;39.41
60820;BME280;46641;48.904;9.126;2022-07-23T21:00:58;98832.75;;;30.73;39.22
60820;BME280;46641;48.904;9.126;2022-07-23T21:05:49;98840.59;;;30.70;39.15
60820;BME280;46641;48.904;9.126;2022-07-23T21:10:39;98837.63;;;30.66;39.16
60820;BME280;46641;48.904;9.126;2022-07-23T21:15:29;98835.44;;;30.63;39.42
60820;BME280;46641;48.904;9.126;2022-07-23T21:20:20;98839.78;;;30.59;39.57
60820;BME280;46641;48.904;9.126;2022-07-23T21:25:11;98839.78;;;30.54;39.30
60820;BME280;46641;48.904;9.126;2022-07-23T21:30:03;98837.88;;;30.49;39.75
60820;BME280;46641;48.904;9.126;2022-07-23T21:34:53;98838.44;;;30.46;39.78
60820;BME280;46641;48.904;9.126;2022-07-23T21:39:43;98842.47;;;30.44;39.89
60820;BME280;46641;48.904;9.126;2022-07-23T21:44:34;98845.72;;;30.41;39.59
60820;BME280;46641;48.904;9.126;2022-07-23T21:49:24;98849.75;;;30.33;39.33
60820;BME280;46641;48.904;9.126;2022-07-23T21:54:14;98850.03;;;30.32;39.59
60820;BME280;46641;48.904;9.126;2022-07-23T21:59:05;98842.72;;;30.27;40.11
60820;BME280;46641;48.904;9.126;2022-07-23T22:03:55;98849.19;;;30.21;40.26
60820;BME280;46641;48.904;9.126;2022-07-23T22:08:46;98847.28;;;30.16;39.86
60820;BME280;46641;48.904;9.126;2022-07-23T22:13:36;98856.97;;;30.12;40.43
60820;BME280;46641;48.904;9.126;2022-07-23T22:18:26;98855.88;;;30.08;40.43
60820;BME280;46641;48.904;9.126;2022-07-23T22:23:17;98852.09;;;30.04;40.18
60820;BME280;46641;48.904;9.126;2022-07-23T22:28:07;98848.31;;;30.00;40.06
60820;BME280;46641;48.904;9.126;2022-07-23T22:32:58;98847.22;;;29.96;40.51
60820;BME280;46641;48.904;9.126;2022-07-23T22:37:48;98845.03;;;29.93;40.51
60820;BME280;46641;48.904;9.126;2022-07-23T22:42:39;98837.75;;;29.88;40.58
60820;BME280;46641;48.904;9.126;2022-07-23T22:47:29;98846.38;;;29.85;40.28
60820;BME280;46641;48.904;9.126;2022-07-23T22:52:20;98847.19;;;29.80;40.17
60820;BME280;46641;48.904;9.126;2022-07-23T22:57:10;98846.91;;;29.77;40.73
60820;BME280;46641;48.904;9.126;2022-07-23T23:02:00;98850.38;;;29.72;40.25
60820;BME280;46641;48.904;9.126;2022-07-23T23:06:51;98845.78;;;29.68;40.63
60820;BME280;46641;48.904;9.126;2022-07-23T23:11:41;98842.53;;;29.66;40.31
60820;BME280;46641;48.904;9.126;2022-07-23T23:16:31;98841.69;;;29.60;40.85
60820;BME280;46641;48.904;9.126;2022-07-23T23:21:22;98838.69;;;29.56;40.50
60820;BME280;46641;48.904;9.126;2022-07-23T23:26:12;98841.38;;;29.51;40.60
60820;BME280;46641;48.904;9.126;2022-07-23T23:31:06;98840.00;;;29.49;40.99
60820;BME280;46641;48.904;9.126;2022-07-23T23:35:59;98847.00;;;29.45;40.82
60820;BME280;46641;48.904;9.126;2022-07-23T23:40:50;98835.09;;;29.41;40.59
60820;BME280;46641;48.904;9.126;2022-07-23T23:45:41;98848.31;;;29.37;40.92
60820;BME280;46641;48.904;9.126;2022-07-23T23:50:31;98845.31;;;29.33;40.94
60820;BME280;46641;48.904;9.126;2022-07-23T23:55:21;98841.53;;;29.29;40.82
